createdAt,value
2023-02-02T00:01:35.999Z,-1.29
2023-02-02T00:06:45.453Z,-1.05
2023-02-02T00:11:48.920Z,-1.26
2023-02-02T00:16:55.783Z,-1.33
2023-02-02T00:21:58.951Z,-1.57
2023-02-02T00:27:01.274Z,-1.59
2023-02-02T00:32:03.729Z,-1.19
2023-02-02T00:37:06.191Z,0.82
2023-02-02T00:42:16.690Z,1.80
2023-02-02T00:47:22.699Z,2.09
2023-02-02T00:52:24.928Z,2.21
2023-02-02T00:57:26.947Z,2.22
2023-02-02T01:02:29.197Z,2.19
2023-02-02T01:07:31.563Z,2.28
2023-02-02T01:12:33.829Z,2.30
2023-02-02T01:17:35.953Z,2.41
2023-02-02T01:22:38.950Z,2.29
2023-02-02T01:27:42.938Z,2.42
2023-02-02T01:32:45.536Z,2.30
2023-02-02T01:37:47.920Z,2.20
2023-02-02T01:42:50.089Z,2.51
2023-02-02T01:47:56.665Z,2.50
2023-02-02T01:53:02.291Z,2.73
2023-02-02T01:58:11.650Z,2.69
2023-02-02T02:03:17.228Z,2.60
2023-02-02T02:08:27.323Z,2.60
2023-02-02T02:13:50.118Z,2.26
2023-02-02T02:19:31.311Z,2.45
2023-02-02T02:25:46.939Z,2.34
2023-02-02T02:30:55.523Z,2.38
2023-02-02T02:36:11.156Z,2.34
2023-02-02T02:41:23.374Z,2.34
2023-02-02T02:46:26.893Z,2.51
2023-02-02T02:51:47.396Z,2.67
2023-02-02T02:57:11.064Z,2.53
2023-02-02T03:02:29.307Z,2.72
2023-02-02T03:07:42.561Z,2.74
2023-02-02T03:12:50.125Z,2.79
2023-02-02T03:17:54.289Z,2.64
2023-02-02T03:22:56.806Z,2.56
2023-02-02T03:27:59.486Z,2.57
2023-02-02T03:33:01.790Z,2.69
2023-02-02T03:38:04.381Z,2.58
2023-02-02T03:43:06.683Z,2.61
2023-02-02T03:48:09.017Z,2.58
2023-02-02T03:53:11.273Z,2.50
2023-02-02T03:58:13.483Z,2.61
2023-02-02T04:03:15.555Z,2.52
2023-02-02T04:08:17.751Z,2.23
2023-02-02T04:13:20.174Z,1.83
2023-02-02T04:18:22.489Z,1.39
2023-02-02T04:23:25.039Z,1.30
2023-02-02T04:28:28.321Z,1.10
2023-02-02T04:33:30.603Z,0.91
2023-02-02T04:38:32.815Z,1.06
2023-02-02T04:43:36.718Z,1.36
2023-02-02T04:48:41.298Z,1.64
2023-02-02T04:53:43.670Z,1.87
2023-02-02T04:58:46.377Z,2.10
2023-02-02T05:03:49.715Z,2.07
2023-02-02T05:08:52.196Z,2.02
2023-02-02T05:13:55.387Z,1.72
2023-02-02T05:18:59.652Z,1.90
2023-02-02T05:24:03.116Z,1.90
2023-02-02T05:29:07.039Z,1.91
2023-02-02T05:34:11.736Z,2.27
2023-02-02T05:39:14.000Z,2.33
2023-02-02T05:44:16.499Z,2.54
2023-02-02T05:49:18.511Z,2.62
2023-02-02T05:54:20.798Z,2.88
2023-02-02T05:59:23.527Z,3.04
2023-02-02T06:04:26.106Z,3.18
2023-02-02T06:09:28.188Z,3.53
2023-02-02T06:14:30.390Z,3.85
2023-02-02T06:19:32.969Z,4.00
2023-02-02T06:24:35.360Z,4.37
2023-02-02T06:29:44.941Z,4.32
2023-02-02T06:34:47.096Z,4.31
2023-02-02T06:39:49.373Z,4.08
2023-02-02T06:44:51.496Z,4.49
2023-02-02T06:49:53.768Z,4.90
2023-02-02T06:54:56.043Z,5.23
2023-02-02T06:59:58.292Z,5.32
2023-02-02T07:05:00.477Z,5.24
2023-02-02T07:10:02.657Z,5.42
2023-02-02T07:15:05.433Z,5.73
2023-02-02T07:20:08.048Z,6.01
2023-02-02T07:25:10.460Z,7.09
2023-02-02T07:30:12.877Z,9.44
2023-02-02T07:35:16.111Z,10.82
2023-02-02T07:40:18.652Z,13.94
2023-02-02T07:45:26.868Z,11.05
2023-02-02T07:50:38.401Z,10.85
2023-02-02T07:55:40.696Z,9.00
2023-02-02T08:00:42.956Z,7.95
2023-02-02T08:05:45.336Z,9.45
2023-02-02T08:10:51.787Z,9.28
2023-02-02T08:15:54.104Z,10.00
2023-02-02T08:20:59.638Z,7.89
2023-02-02T08:26:09.775Z,9.13
2023-02-02T08:31:15.513Z,10.77
2023-02-02T08:36:19.872Z,12.44
2023-02-02T08:41:24.241Z,13.06
2023-02-02T08:46:26.833Z,13.70
2023-02-02T08:51:28.996Z,14.12
2023-02-02T08:56:31.153Z,14.64
2023-02-02T09:01:34.741Z,14.96
2023-02-02T09:06:42.614Z,14.90
2023-02-02T09:11:45.373Z,15.27
2023-02-02T09:16:47.549Z,15.38
2023-02-02T09:21:50.676Z,15.39
2023-02-02T09:26:53.204Z,15.62
2023-02-02T09:31:55.590Z,14.05
2023-02-02T09:36:57.852Z,13.25
2023-02-02T09:42:05.306Z,13.78
2023-02-02T09:47:24.250Z,13.17
2023-02-02T09:52:35.626Z,13.95
2023-02-02T09:57:48.257Z,11.40
2023-02-02T10:02:54.014Z,12.48
2023-02-02T10:08:02.904Z,13.36
2023-02-02T10:13:14.200Z,14.73
2023-02-02T10:18:39.813Z,15.92
2023-02-02T10:23:46.012Z,14.82
2023-02-02T10:29:40.044Z,13.62
2023-02-02T10:35:17.737Z,13.07
2023-02-02T10:40:44.401Z,12.96
2023-02-02T10:45:50.513Z,13.10
2023-02-02T10:50:56.925Z,11.87
2023-02-02T10:56:11.948Z,10.65
2023-02-02T11:01:18.394Z,11.85
2023-02-02T11:06:39.392Z,10.85
2023-02-02T11:11:47.283Z,9.94
2023-02-02T11:17:06.010Z,9.80
2023-02-02T11:22:29.419Z,9.93
2023-02-02T11:27:35.779Z,10.45
2023-02-02T11:32:38.315Z,10.85
2023-02-02T11:37:58.759Z,11.20
2023-02-02T11:43:05.411Z,10.45
2023-02-02T11:48:18.381Z,10.68
2023-02-02T11:53:48.001Z,9.94
2023-02-02T11:58:53.431Z,10.01
2023-02-02T12:04:01.888Z,10.30
2023-02-02T12:09:13.144Z,10.15
2023-02-02T12:14:40.040Z,10.53
2023-02-02T12:20:13.237Z,10.67
2023-02-02T12:25:15.581Z,10.53
2023-02-02T12:30:34.529Z,10.34
2023-02-02T12:36:08.702Z,10.78
2023-02-02T12:41:43.276Z,10.66
2023-02-02T12:47:05.297Z,10.32
2023-02-02T12:52:28.781Z,9.75
2023-02-02T12:57:37.019Z,7.59
2023-02-02T13:02:49.820Z,6.20
2023-02-02T13:07:58.464Z,5.40
2023-02-02T13:13:08.704Z,5.15
2023-02-02T13:18:45.781Z,5.01
2023-02-02T13:23:51.517Z,5.35
2023-02-02T13:29:09.962Z,6.27
2023-02-02T13:34:18.643Z,6.81
2023-02-02T13:39:44.081Z,6.93
2023-02-02T13:44:59.304Z,6.44
2023-02-02T13:50:11.582Z,5.93
2023-02-02T13:55:38.490Z,5.45
2023-02-02T14:00:47.939Z,4.89
2023-02-02T14:06:15.065Z,4.22
2023-02-02T14:11:24.284Z,3.92
2023-02-02T14:16:35.751Z,3.42
2023-02-02T14:21:38.013Z,3.22
2023-02-02T14:26:52.190Z,2.84
2023-02-02T14:31:56.349Z,2.46
2023-02-02T14:37:09.448Z,2.29
2023-02-02T14:42:36.073Z,2.08
2023-02-02T14:47:45.827Z,1.87
2023-02-02T14:53:02.520Z,1.60
2023-02-02T14:58:07.073Z,1.33
2023-02-02T15:03:47.152Z,1.42
2023-02-02T15:09:26.871Z,1.54
2023-02-02T15:14:51.737Z,1.09
2023-02-02T15:20:10.197Z,0.71
2023-02-02T15:25:36.303Z,0.74
2023-02-02T15:30:45.025Z,0.87
2023-02-02T15:35:48.561Z,0.70
2023-02-02T15:40:51.214Z,0.78
2023-02-02T15:46:02.008Z,0.95
2023-02-02T15:51:07.825Z,1.06
2023-02-02T15:56:25.364Z,1.20
2023-02-02T16:01:33.452Z,0.98
2023-02-02T16:06:36.376Z,1.25
2023-02-02T16:11:43.580Z,1.33
2023-02-02T16:16:49.540Z,1.67
2023-02-02T16:21:59.546Z,1.79
2023-02-02T16:27:12.751Z,1.52
2023-02-02T16:32:32.826Z,1.69
2023-02-02T16:37:36.770Z,1.67
2023-02-02T16:42:38.811Z,1.49
2023-02-02T16:47:40.968Z,1.40
2023-02-02T16:53:04.623Z,1.75
2023-02-02T16:58:07.537Z,1.78
2023-02-02T17:03:13.074Z,1.77
2023-02-02T17:08:25.491Z,1.70
2023-02-02T17:13:30.567Z,1.67
2023-02-02T17:18:32.762Z,1.62
2023-02-02T17:23:37.372Z,1.69
2023-02-02T17:28:41.913Z,1.67
2023-02-02T17:33:44.423Z,1.46
2023-02-02T17:38:46.678Z,1.24
2023-02-02T17:43:49.148Z,1.22
2023-02-02T17:48:51.396Z,1.37
2023-02-02T17:53:57.848Z,1.39
2023-02-02T17:59:00.221Z,1.20
2023-02-02T18:04:02.425Z,1.36
2023-02-02T18:09:04.577Z,1.27
2023-02-02T18:14:06.889Z,1.19
2023-02-02T18:19:09.133Z,1.23
2023-02-02T18:24:15.452Z,1.19
2023-02-02T18:29:17.632Z,1.04
2023-02-02T18:34:19.921Z,1.19
2023-02-02T18:39:22.394Z,1.23
2023-02-02T18:44:24.820Z,1.18
2023-02-02T18:49:27.101Z,1.12
2023-02-02T18:54:29.996Z,0.89
2023-02-02T18:59:32.558Z,1.11
2023-02-02T19:04:35.019Z,1.00
2023-02-02T19:09:37.385Z,0.89
2023-02-02T19:14:40.097Z,0.90
2023-02-02T19:19:43.243Z,1.04
2023-02-02T19:24:45.412Z,0.86
2023-02-02T19:29:51.038Z,0.98
2023-02-02T19:34:55.636Z,1.08
2023-02-02T19:40:16.251Z,1.11
2023-02-02T19:45:23.168Z,1.10
2023-02-02T19:50:28.659Z,1.09
2023-02-02T19:55:36.703Z,1.06
2023-02-02T20:00:41.264Z,0.81
2023-02-02T20:05:46.927Z,1.04
2023-02-02T20:10:50.320Z,1.15
2023-02-02T20:16:03.740Z,1.10
2023-02-02T20:27:34.642Z,1.00
2023-02-02T20:32:41.500Z,1.04
2023-02-02T20:37:44.154Z,1.24
2023-02-02T20:42:46.951Z,1.20
2023-02-02T20:47:50.036Z,1.09
2023-02-02T20:52:53.824Z,1.09
2023-02-02T20:57:56.078Z,1.08
2023-02-02T21:02:58.647Z,1.12
2023-02-02T21:08:01.020Z,0.98
2023-02-02T21:13:03.228Z,0.77
2023-02-02T21:18:05.638Z,1.05
2023-02-02T21:23:10.468Z,1.37
2023-02-02T21:28:12.684Z,1.12
2023-02-02T21:33:15.013Z,1.27
2023-02-02T21:38:17.245Z,0.98
2023-02-02T21:43:20.040Z,0.99
2023-02-02T21:48:34.996Z,1.03
2023-02-02T21:53:37.896Z,1.07
2023-02-02T21:58:40.308Z,1.15
2023-02-02T22:03:46.966Z,1.38
2023-02-02T22:08:50.011Z,1.28
2023-02-02T22:13:54.282Z,0.97
2023-02-02T22:18:56.372Z,1.21
2023-02-02T22:24:00.711Z,1.19
2023-02-02T22:29:14.583Z,1.23
2023-02-02T22:34:16.946Z,1.10
2023-02-02T22:39:19.450Z,1.09
2023-02-02T22:44:21.943Z,1.38
2023-02-02T22:49:24.040Z,1.06
2023-02-02T22:54:26.376Z,1.00
2023-02-02T22:59:28.698Z,0.85
2023-02-02T23:04:31.113Z,0.59
2023-02-02T23:09:33.426Z,0.64
2023-02-02T23:14:35.780Z,0.74
2023-02-02T23:19:45.692Z,0.64
2023-02-02T23:24:50.336Z,1.00
2023-02-02T23:29:58.846Z,1.29
2023-02-02T23:35:01.356Z,1.43
2023-02-02T23:40:03.685Z,1.20
2023-02-02T23:45:06.495Z,1.25
2023-02-02T23:50:09.941Z,0.71
2023-02-02T23:55:12.493Z,0.86
